Time;durP1;ratioP1;P1;durP2;ratioP2;P2;SDS_P1;SDS_P2;PMS_P1;PMS_P2;Temp;Humidity;BMP_temperature;BMP_pressure;BME280_temperature;BME280_humidity;BME280_pressure;Samples;Min_cycle;Max_cycle;Signal;HPM_P1;HPM_P2
2023/12/03 00:02:12;;;;;;;1.40;0.88;;;-0.60;99.90;;;;;;4989371;28;20049;-75
2023/12/03 00:04:39;;;;;;;1.98;0.90;;;-0.50;1.00;;;;;;5021419;28;20049;-76
2023/12/03 00:07:06;;;;;;;1.30;0.80;;;-0.40;1.00;;;;;;5022010;28;20139;-75
2023/12/03 00:09:33;;;;;;;2.67;1.00;;;-0.30;55.90;;;;;;5020675;28;20053;-75
2023/12/03 00:12:00;;;;;;;1.50;0.95;;;-0.30;51.80;;;;;;5004176;28;20053;-76
2023/12/03 00:14:27;;;;;;;2.30;1.05;;;-0.20;94.50;;;;;;5003994;28;20084;-75
2023/12/03 00:16:54;;;;;;;1.45;1.00;;;-0.20;99.90;;;;;;5022660;28;20415;-76
2023/12/03 00:19:21;;;;;;;1.35;1.10;;;-0.10;99.90;;;;;;5021192;28;20057;-75
2023/12/03 00:21:48;;;;;;;2.58;1.30;;;-0.10;99.90;;;;;;4988129;28;20049;-75
2023/12/03 00:24:15;;;;;;;1.73;0.85;;;-0.10;99.90;;;;;;5004391;28;20055;-75
2023/12/03 00:26:42;;;;;;;2.00;1.38;;;0.00;99.90;;;;;;4987415;28;20688;-75
2023/12/03 00:29:10;;;;;;;1.80;1.20;;;0.10;99.90;;;;;;4988812;28;20243;-75
2023/12/03 00:31:37;;;;;;;2.33;1.17;;;0.10;99.90;;;;;;4988505;28;20139;-75
2023/12/03 00:34:04;;;;;;;1.27;0.90;;;0.20;99.90;;;;;;4988152;28;20506;-75
2023/12/03 00:36:31;;;;;;;1.60;0.93;;;0.20;99.90;;;;;;5004254;28;20136;-75
2023/12/03 00:38:58;;;;;;;1.55;0.68;;;0.20;99.90;;;;;;4981401;28;20108;-75
2023/12/03 00:41:25;;;;;;;1.02;0.65;;;0.30;99.90;;;;;;5018316;28;20072;-75
2023/12/03 00:43:53;;;;;;;1.95;1.00;;;0.40;99.90;;;;;;5020583;28;20054;-75
2023/12/03 00:46:20;;;;;;;0.95;0.80;;;0.40;99.90;;;;;;5019410;28;20135;-75
2023/12/03 00:48:47;;;;;;;1.98;1.00;;;0.40;99.90;;;;;;5021504;28;20060;-76
2023/12/03 00:51:14;;;;;;;1.42;0.95;;;0.50;99.90;;;;;;5021905;28;20056;-75
2023/12/03 00:53:42;;;;;;;1.77;1.10;;;0.50;99.90;;;;;;5003570;28;20138;-75
2023/12/03 00:56:09;;;;;;;1.52;0.90;;;0.50;99.90;;;;;;4987184;28;20065;-75
2023/12/03 00:58:36;;;;;;;2.08;1.13;;;0.60;99.90;;;;;;5004762;28;20052;-75
2023/12/03 01:01:04;;;;;;;2.08;1.02;;;0.60;99.90;;;;;;4987772;28;20526;-75
2023/12/03 01:03:31;;;;;;;1.85;0.90;;;0.60;92.70;;;;;;4986533;28;20049;-75
2023/12/03 01:05:58;;;;;;;1.15;0.88;;;0.60;36.50;;;;;;4988046;28;20056;-75
2023/12/03 01:08:25;;;;;;;1.58;0.95;;;0.60;2.30;;;;;;5002854;28;20052;-75
2023/12/03 01:10:52;;;;;;;1.73;1.10;;;0.60;1.00;;;;;;4986245;28;20127;-75
2023/12/03 01:13:19;;;;;;;1.58;1.00;;;0.60;1.00;;;;;;5021494;28;20533;-75
2023/12/03 01:15:49;;;;;;;2.13;1.20;;;0.60;1.00;;;;;;5004175;28;20415;-75
2023/12/03 01:18:17;;;;;;;1.80;1.00;;;0.70;1.00;;;;;;5003917;28;20061;-75
2023/12/03 01:20:43;;;;;;;2.00;1.10;;;0.70;99.90;;;;;;5003112;28;20159;-75
2023/12/03 01:23:10;;;;;;;2.03;0.90;;;0.70;99.90;;;;;;5003043;28;20194;-75
2023/12/03 01:25:37;;;;;;;1.35;0.90;;;0.70;99.90;;;;;;5002868;28;20474;-75
2023/12/03 01:28:04;;;;;;;1.80;0.93;;;0.70;99.90;;;;;;5019520;28;20125;-75
2023/12/03 01:30:31;;;;;;;1.58;1.00;;;0.70;99.90;;;;;;5003497;28;20119;-75
2023/12/03 01:32:59;;;;;;;1.48;1.08;;;0.80;99.90;;;;;;5003142;28;20100;-75
2023/12/03 01:35:26;;;;;;;1.38;0.90;;;0.80;99.90;;;;;;5003357;28;20051;-75
2023/12/03 01:37:53;;;;;;;1.40;0.88;;;0.80;99.90;;;;;;5019320;28;20490;-75
2023/12/03 01:40:21;;;;;;;1.83;1.02;;;0.80;99.90;;;;;;5020227;28;20608;-75
2023/12/03 01:42:48;;;;;;;1.98;0.88;;;0.80;59.60;;;;;;5002808;28;20046;-75
2023/12/03 01:45:15;;;;;;;1.27;1.00;;;0.80;1.00;;;;;;5020903;28;20053;-76
2023/12/03 01:47:42;;;;;;;1.73;1.10;;;0.90;1.00;;;;;;5003614;28;20076;-76
2023/12/03 01:50:12;;;;;;;1.15;0.90;;;0.90;1.00;;;;;;4986850;28;20042;-76
2023/12/03 01:52:39;;;;;;;1.80;1.00;;;0.90;1.00;;;;;;5019325;28;20746;-76
2023/12/03 01:55:06;;;;;;;1.30;1.08;;;0.90;99.90;;;;;;5017950;28;20057;-76
2023/12/03 01:57:33;;;;;;;1.20;0.80;;;1.00;99.90;;;;;;5002865;28;20560;-76
2023/12/03 02:00:00;;;;;;;1.77;1.25;;;1.00;99.90;;;;;;5019641;28;20064;-75
2023/12/03 02:02:27;;;;;;;1.55;0.90;;;1.00;99.90;;;;;;5003198;28;20088;-76
2023/12/03 02:04:54;;;;;;;1.60;0.98;;;1.00;99.90;;;;;;5003157;28;20060;-75
2023/12/03 02:07:21;;;;;;;1.35;0.90;;;1.10;99.90;;;;;;5003376;28;20053;-75
2023/12/03 02:09:49;;;;;;;1.55;1.10;;;1.10;43.70;;;;;;4985933;28;20103;-76
2023/12/03 02:12:16;;;;;;;1.50;0.90;;;1.10;1.00;;;;;;5019076;28;20053;-76
2023/12/03 02:14:42;;;;;;;1.45;0.85;;;1.10;99.90;;;;;;5002680;28;20132;-76
2023/12/03 02:17:09;;;;;;;1.55;0.95;;;1.10;99.90;;;;;;5019710;28;20146;-75
2023/12/03 02:19:36;;;;;;;2.03;1.30;;;1.10;99.90;;;;;;5020540;28;20113;-76
2023/12/03 02:22:03;;;;;;;1.90;1.27;;;1.20;99.90;;;;;;5019268;28;20053;-75
2023/12/03 02:24:30;;;;;;;2.15;1.27;;;1.20;99.90;;;;;;5001340;28;20507;-75
2023/12/03 02:26:57;;;;;;;1.80;1.25;;;1.20;99.90;;;;;;4985891;28;20091;-75
2023/12/03 02:29:24;;;;;;;2.40;1.33;;;1.30;99.90;;;;;;4986529;28;20053;-75
2023/12/03 02:31:51;;;;;;;1.65;1.00;;;1.30;66.00;;;;;;5001741;28;20054;-74
2023/12/03 02:34:18;;;;;;;1.20;0.82;;;1.20;1.00;;;;;;5019380;28;20060;-75
2023/12/03 02:36:45;;;;;;;1.67;1.20;;;1.30;1.00;;;;;;5006112;28;20073;-75
2023/12/03 02:39:12;;;;;;;1.70;1.00;;;1.30;1.00;;;;;;5022446;28;20041;-75
2023/12/03 02:41:39;;;;;;;2.13;1.23;;;1.30;99.90;;;;;;5005520;28;20188;-75
2023/12/03 02:44:06;;;;;;;1.85;1.02;;;1.30;99.90;;;;;;5021778;28;20053;-75
2023/12/03 02:46:33;;;;;;;1.67;1.20;;;1.40;1.00;;;;;;5023443;28;20088;-75
2023/12/03 02:49:00;;;;;;;1.95;1.20;;;1.40;99.90;;;;;;5006637;28;20110;-75
2023/12/03 02:51:27;;;;;;;2.10;1.50;;;1.40;99.90;;;;;;5021628;28;20046;-75
2023/12/03 02:53:54;;;;;;;2.00;1.27;;;1.40;99.90;;;;;;5005946;28;20170;-75
2023/12/03 02:56:21;;;;;;;2.70;1.55;;;1.50;99.90;;;;;;5004791;28;20666;-75
2023/12/03 02:58:49;;;;;;;2.75;1.50;;;1.50;99.90;;;;;;5003255;28;20104;-75
2023/12/03 03:01:16;;;;;;;1.60;1.10;;;1.60;98.30;;;;;;5019087;28;20061;-75
2023/12/03 03:03:44;;;;;;;2.05;1.42;;;1.60;1.00;;;;;;5022396;28;20057;-75
2023/12/03 03:06:11;;;;;;;1.48;1.00;;;1.60;1.00;;;;;;5023516;28;20053;-75
2023/12/03 03:08:38;;;;;;;1.80;1.30;;;1.70;99.90;;;;;;4990019;28;20061;-75
2023/12/03 03:11:05;;;;;;;1.67;1.33;;;1.80;99.90;;;;;;5004699;28;20062;-75
2023/12/03 03:13:32;;;;;;;2.00;1.52;;;2.00;99.90;;;;;;5005790;28;20099;-75
2023/12/03 03:16:00;;;;;;;2.00;1.20;;;2.10;6.00;;;;;;5005243;28;20573;-75
2023/12/03 03:18:26;;;;;;;1.38;0.93;;;2.30;1.00;;;;;;4990042;28;20061;-75
2023/12/03 03:20:53;;;;;;;1.75;1.00;;;2.40;99.90;;;;;;5022394;28;20123;-75
2023/12/03 03:23:20;;;;;;;2.42;1.08;;;2.40;99.90;;;;;;4989325;28;20100;-75
2023/12/03 03:25:47;;;;;;;1.88;1.10;;;2.50;99.90;;;;;;5005064;28;20088;-74
2023/12/03 03:28:14;;;;;;;1.88;1.05;;;2.60;99.90;;;;;;5022481;28;20581;-75
2023/12/03 03:30:41;;;;;;;1.38;0.80;;;2.70;99.90;;;;;;5021992;28;20056;-75
2023/12/03 03:33:08;;;;;;;1.58;0.98;;;2.80;99.90;;;;;;5025774;28;20103;-75
2023/12/03 03:35:35;;;;;;;1.27;0.80;;;2.80;99.90;;;;;;5027193;28;20236;-75
2023/12/03 03:38:01;;;;;;;1.58;1.00;;;2.80;99.90;;;;;;5026609;28;20042;-75
2023/12/03 03:40:28;;;;;;;1.50;0.80;;;2.90;99.90;;;;;;4992743;28;20133;-75
2023/12/03 03:42:55;;;;;;;2.50;1.23;;;3.00;99.90;;;;;;5008203;28;20427;-75
2023/12/03 03:45:22;;;;;;;1.88;0.90;;;3.00;99.90;;;;;;5008982;28;20061;-75
2023/12/03 03:47:50;;;;;;;1.90;1.00;;;3.00;99.90;;;;;;5025327;28;20553;-75
2023/12/03 03:50:17;;;;;;;1.52;0.80;;;3.10;99.90;;;;;;5009233;28;20053;-75
2023/12/03 03:52:43;;;;;;;1.33;0.70;;;3.10;99.90;;;;;;5024777;28;20053;-74
2023/12/03 03:55:11;;;;;;;1.50;0.82;;;3.10;99.90;;;;;;5008001;28;20490;-75
2023/12/03 03:57:40;;;;;;;2.40;1.08;;;3.20;99.90;;;;;;5024677;28;20049;-75
2023/12/03 04:00:07;;;;;;;1.60;0.60;;;3.20;99.90;;;;;;5008877;28;20049;-75
2023/12/03 04:02:34;;;;;;;1.17;0.60;;;3.30;99.90;;;;;;5009309;28;20085;-75
2023/12/03 04:05:01;;;;;;;1.27;0.82;;;3.30;99.90;;;;;;5024801;28;20061;-75
2023/12/03 04:07:29;;;;;;;1.08;0.70;;;3.30;99.90;;;;;;5009382;28;20066;-75
2023/12/03 04:09:55;;;;;;;0.95;0.57;;;3.40;99.90;;;;;;5007811;28;20191;-75
2023/12/03 04:12:22;;;;;;;1.40;0.85;;;3.40;99.90;;;;;;5007928;28;20054;-75
2023/12/03 04:14:49;;;;;;;1.10;0.70;;;3.40;99.90;;;;;;5008329;28;20056;-74
2023/12/03 04:17:17;;;;;;;1.05;0.60;;;3.40;99.90;;;;;;5025037;28;20041;-75
2023/12/03 04:19:43;;;;;;;0.90;0.70;;;3.40;99.90;;;;;;5025084;28;20072;-75
2023/12/03 04:22:10;;;;;;;1.23;0.95;;;3.40;99.90;;;;;;5026735;28;20053;-75
2023/12/03 04:24:38;;;;;;;1.77;0.90;;;3.40;99.90;;;;;;4994228;28;20080;-75
2023/12/03 04:27:04;;;;;;;1.00;0.70;;;3.40;99.90;;;;;;5020420;28;20511;-75
2023/12/03 04:29:31;;;;;;;0.60;0.45;;;3.50;99.90;;;;;;5020902;28;20046;-75
2023/12/03 04:31:58;;;;;;;0.88;0.70;;;3.50;99.90;;;;;;5006568;28;20050;-74
2023/12/03 04:34:25;;;;;;;0.45;0.40;;;3.50;99.90;;;;;;5034314;28;20049;-74
2023/12/03 04:36:52;;;;;;;1.83;0.70;;;3.60;99.90;;;;;;5024921;28;20468;-75
2023/12/03 04:39:19;;;;;;;1.35;0.60;;;3.60;99.90;;;;;;5008568;28;20045;-75
2023/12/03 04:41:46;;;;;;;1.20;0.70;;;3.60;99.90;;;;;;5023328;28;20053;-75
2023/12/03 04:44:13;;;;;;;0.70;0.50;;;3.70;99.90;;;;;;5025549;28;20049;-74
2023/12/03 04:46:43;;;;;;;1.58;0.75;;;3.70;99.90;;;;;;5025851;28;20053;-75
2023/12/03 04:49:10;;;;;;;1.48;0.70;;;3.80;99.90;;;;;;5008684;28;20053;-75
2023/12/03 04:51:37;;;;;;;0.98;0.80;;;3.80;99.90;;;;;;5024228;28;20064;-75
2023/12/03 04:54:04;;;;;;;1.60;0.77;;;3.80;99.90;;;;;;4991413;28;20049;-74
2023/12/03 04:56:31;;;;;;;0.63;0.52;;;3.80;99.90;;;;;;5006612;28;20154;-75
2023/12/03 04:58:57;;;;;;;1.10;0.73;;;3.80;99.90;;;;;;5024928;28;20072;-75
2023/12/03 05:01:25;;;;;;;1.05;0.80;;;3.80;99.90;;;;;;5005800;28;20042;-75
2023/12/03 05:03:52;;;;;;;1.92;1.00;;;3.80;99.90;;;;;;5008192;28;20057;-74
2023/12/03 05:06:19;;;;;;;0.85;0.70;;;3.80;99.90;;;;;;5007769;28;20060;-75
2023/12/03 05:08:46;;;;;;;0.90;0.70;;;3.90;99.90;;;;;;5007272;28;20049;-75
2023/12/03 05:11:12;;;;;;;1.98;1.08;;;3.90;99.90;;;;;;5022506;28;20049;-75
2023/12/03 05:13:39;;;;;;;1.05;0.60;;;3.90;99.90;;;;;;5023596;28;20111;-75
2023/12/03 05:16:07;;;;;;;1.33;0.60;;;3.90;99.90;;;;;;5024912;28;20057;-75
2023/12/03 05:18:34;;;;;;;1.20;0.93;;;3.90;99.90;;;;;;5025304;28;20065;-75
2023/12/03 05:21:01;;;;;;;1.02;0.68;;;3.90;99.90;;;;;;5023629;28;20487;-75
2023/12/03 05:23:28;;;;;;;1.75;1.05;;;3.90;99.90;;;;;;5006923;28;20053;-76
2023/12/03 05:25:57;;;;;;;1.23;0.68;;;3.90;99.90;;;;;;5022002;28;20053;-75
2023/12/03 05:28:23;;;;;;;1.35;0.90;;;3.90;99.90;;;;;;5023922;28;20136;-74
2023/12/03 05:30:50;;;;;;;1.98;0.82;;;3.90;99.90;;;;;;5007078;28;20410;-75
2023/12/03 05:33:17;;;;;;;1.52;0.80;;;3.90;99.90;;;;;;5022998;28;20598;-75
2023/12/03 05:35:44;;;;;;;1.08;0.70;;;3.90;99.90;;;;;;5007007;28;20079;-75
2023/12/03 05:38:12;;;;;;;1.38;1.13;;;3.90;99.90;;;;;;4990807;28;20092;-75
2023/12/03 05:40:39;;;;;;;2.00;1.30;;;3.90;99.90;;;;;;5005887;28;20576;-75
2023/12/03 05:43:07;;;;;;;1.25;0.98;;;4.00;99.90;;;;;;5024050;28;20616;-75
2023/12/03 05:45:34;;;;;;;1.30;0.73;;;4.00;99.90;;;;;;5023249;28;20064;-75
2023/12/03 05:48:01;;;;;;;1.83;0.80;;;4.00;1.00;;;;;;5023324;28;20124;-75
2023/12/03 05:50:29;;;;;;;1.25;0.85;;;4.00;1.00;;;;;;5024712;28;20054;-75
2023/12/03 05:52:56;;;;;;;1.42;1.08;;;4.00;99.90;;;;;;5022863;28;20207;-75
2023/12/03 05:55:23;;;;;;;2.72;1.50;;;4.00;99.90;;;;;;5005508;28;20052;-75
2023/12/03 05:57:50;;;;;;;1.65;1.08;;;4.00;1.00;;;;;;5022992;28;20264;-75
2023/12/03 06:00:17;;;;;;;1.88;1.35;;;4.00;99.90;;;;;;5006832;28;20057;-74
2023/12/03 06:02:45;;;;;;;2.45;1.35;;;4.00;99.90;;;;;;4982753;28;20054;-75
2023/12/03 06:05:12;;;;;;;2.13;1.08;;;4.00;1.00;;;;;;5000010;28;20203;-75
2023/12/03 06:07:39;;;;;;;1.95;1.30;;;4.10;5.50;;;;;;5003112;28;20450;-75
2023/12/03 06:10:06;;;;;;;1.55;0.98;;;4.10;99.90;;;;;;4985895;28;20075;-75
2023/12/03 06:12:33;;;;;;;1.52;1.02;;;4.10;99.90;;;;;;5002783;28;20127;-75
2023/12/03 06:15:00;;;;;;;2.47;1.50;;;4.10;1.00;;;;;;4986484;28;20060;-75
2023/12/03 06:17:27;;;;;;;2.63;1.58;;;4.10;1.00;;;;;;5018772;28;20049;-74
2023/12/03 06:19:54;;;;;;;2.50;1.33;;;4.10;99.90;;;;;;4986298;28;20049;-75
2023/12/03 06:22:21;;;;;;;2.60;1.70;;;4.10;99.90;;;;;;4986522;28;20057;-75
2023/12/03 06:24:48;;;;;;;3.38;1.73;;;4.10;1.00;;;;;;4985527;28;20048;-75
2023/12/03 06:27:15;;;;;;;3.03;1.63;;;4.10;47.00;;;;;;4986188;28;20168;-75
2023/12/03 06:29:42;;;;;;;3.00;1.65;;;4.00;99.90;;;;;;4987193;28;20160;-75
2023/12/03 06:32:09;;;;;;;3.70;1.95;;;4.10;1.00;;;;;;4989134;28;20053;-75
2023/12/03 06:34:37;;;;;;;2.13;1.35;;;4.10;88.90;;;;;;5021841;28;20376;-75
2023/12/03 06:37:04;;;;;;;2.30;1.20;;;4.10;69.00;;;;;;5021971;28;20053;-75
2023/12/03 06:39:31;;;;;;;1.80;1.20;;;4.10;18.60;;;;;;5023083;28;20056;-75
2023/12/03 06:41:58;;;;;;;2.05;1.30;;;4.10;99.90;;;;;;5004581;28;20049;-75
2023/12/03 06:44:25;;;;;;;2.25;1.45;;;4.10;99.90;;;;;;5022133;28;20046;-75
2023/12/03 06:47:07;;;;;;;2.42;1.67;;;4.10;99.90;;;;;;5007638;28;20520;-75
2023/12/03 06:49:34;;;;;;;2.08;1.33;;;4.00;99.90;;;;;;5023045;28;20127;-75
2023/12/03 06:52:01;;;;;;;1.90;1.30;;;4.00;99.90;;;;;;5021745;28;20049;-75
2023/12/03 06:54:28;;;;;;;1.85;1.08;;;4.00;1.00;;;;;;5021462;28;20045;-75
2023/12/03 06:56:55;;;;;;;2.30;1.25;;;4.00;1.00;;;;;;4986688;28;20079;-75
2023/12/03 06:59:22;;;;;;;1.63;1.08;;;4.00;1.00;;;;;;4985924;28;20046;-75
2023/12/03 07:01:48;;;;;;;2.10;1.48;;;4.00;99.90;;;;;;4985826;28;20559;-75
2023/12/03 07:04:15;;;;;;;2.15;1.10;;;4.00;1.90;;;;;;5022210;28;20049;-75
2023/12/03 07:06:42;;;;;;;3.55;1.45;;;4.00;99.90;;;;;;5023305;28;20062;-76
2023/12/03 07:09:11;;;;;;;2.55;1.33;;;4.00;99.90;;;;;;5009591;28;20505;-75
2023/12/03 07:11:58;;;;;;;1.95;1.30;;;4.00;99.90;;;;;;5024993;28;20061;-75
2023/12/03 07:14:25;;;;;;;3.60;0.98;;;4.00;99.90;;;;;;5009156;28;20050;-75
2023/12/03 07:16:52;;;;;;;2.08;1.30;;;4.00;99.90;;;;;;4993256;28;20049;-75
2023/12/03 07:19:19;;;;;;;2.55;1.60;;;4.00;1.00;;;;;;5005727;28;20406;-75
2023/12/03 07:21:46;;;;;;;2.20;1.27;;;4.10;1.00;;;;;;4989596;28;20143;-75
2023/12/03 07:24:13;;;;;;;2.17;1.40;;;4.10;1.00;;;;;;5024765;28;20558;-75
2023/12/03 07:26:43;;;;;;;1.85;1.13;;;4.10;1.00;;;;;;5008189;28;20045;-75
2023/12/03 07:29:10;;;;;;;2.97;1.90;;;4.10;1.00;;;;;;5025684;28;20049;-75
2023/12/03 07:31:37;;;;;;;2.40;1.45;;;4.10;1.00;;;;;;5023459;28;20049;-75
2023/12/03 07:34:04;;;;;;;2.88;1.48;;;4.20;1.00;;;;;;5023341;28;20685;-75
2023/12/03 07:36:31;;;;;;;2.42;1.55;;;4.20;99.90;;;;;;5023410;28;20505;-75
2023/12/03 07:38:58;;;;;;;2.25;1.50;;;4.20;91.30;;;;;;5005935;28;20049;-74
2023/12/03 07:41:25;;;;;;;2.53;1.50;;;4.20;99.90;;;;;;5005051;28;20101;-75
2023/12/03 07:43:52;;;;;;;2.97;1.50;;;4.20;99.90;;;;;;5008133;28;20053;-74
2023/12/03 07:46:19;;;;;;;3.85;1.73;;;4.20;99.90;;;;;;5008746;28;20046;-75
2023/12/03 07:48:46;;;;;;;2.50;1.60;;;4.30;99.90;;;;;;5009513;28;20083;-74
2023/12/03 07:51:13;;;;;;;2.78;1.35;;;4.30;99.90;;;;;;4992157;28;20511;-75
2023/12/03 07:53:40;;;;;;;2.53;1.83;;;4.30;99.90;;;;;;4991476;28;20060;-75
2023/12/03 07:56:07;;;;;;;2.88;1.20;;;4.40;99.90;;;;;;5008402;28;20046;-84
2023/12/03 07:58:35;;;;;;;3.15;1.30;;;4.40;99.90;;;;;;4994080;28;20084;-76
2023/12/03 08:01:05;;;;;;;2.75;1.60;;;4.40;99.90;;;;;;5024353;28;20084;-75
2023/12/03 08:03:32;;;;;;;2.38;1.52;;;4.40;99.90;;;;;;5021512;28;20067;-76
2023/12/03 08:05:59;;;;;;;2.35;1.20;;;4.50;59.30;;;;;;5020723;28;20905;-76
2023/12/03 08:08:26;;;;;;;2.25;1.30;;;4.50;74.10;;;;;;5023215;28;20045;-75
2023/12/03 08:10:53;;;;;;;2.08;1.13;;;4.50;66.30;;;;;;5024482;28;20139;-76
2023/12/03 08:13:20;;;;;;;3.08;2.22;;;4.60;54.80;;;;;;5023117;28;20045;-76
2023/12/03 08:15:47;;;;;;;2.75;1.50;;;4.60;1.00;;;;;;5019063;28;20125;-75
2023/12/03 08:18:14;;;;;;;4.00;1.73;;;4.60;99.90;;;;;;5017932;28;20056;-77
2023/12/03 08:20:41;;;;;;;2.38;1.23;;;4.60;1.00;;;;;;5003615;28;20065;-77
2023/12/03 08:23:08;;;;;;;2.30;1.20;;;4.70;99.90;;;;;;4988223;28;20058;-76
2023/12/03 08:25:34;;;;;;;2.03;1.27;;;4.70;99.90;;;;;;4987888;28;20066;-76
2023/12/03 08:28:05;;;;;;;2.35;1.35;;;4.70;99.90;;;;;;5006326;28;20114;-76
2023/12/03 08:30:31;;;;;;;1.58;0.98;;;4.80;99.90;;;;;;5021522;28;20520;-76
2023/12/03 08:32:58;;;;;;;2.63;1.40;;;4.90;99.90;;;;;;5021114;28;20061;-76
2023/12/03 08:35:25;;;;;;;1.75;1.17;;;4.90;99.90;;;;;;5003144;28;20038;-75
2023/12/03 08:37:52;;;;;;;2.15;1.20;;;4.90;99.90;;;;;;5021324;28;20073;-76
2023/12/03 08:40:19;;;;;;;1.92;0.90;;;5.00;99.90;;;;;;5018996;28;20049;-76
2023/12/03 08:42:46;;;;;;;1.95;1.17;;;5.10;99.90;;;;;;5024115;28;20064;-76
2023/12/03 08:45:14;;;;;;;1.83;1.20;;;5.10;15.70;;;;;;5004580;28;20168;-76
2023/12/03 08:47:41;;;;;;;3.95;1.42;;;5.20;1.00;;;;;;5005711;28;20045;-76
2023/12/03 08:50:08;;;;;;;2.00;0.90;;;5.20;99.90;;;;;;5018345;28;20153;-76
2023/12/03 08:52:35;;;;;;;2.35;1.48;;;5.30;99.90;;;;;;5023074;28;20058;-76
2023/12/03 08:55:02;;;;;;;2.15;1.23;;;5.30;99.90;;;;;;4999245;28;20105;-77
2023/12/03 08:57:30;;;;;;;2.05;1.30;;;5.30;99.90;;;;;;5020009;28;20072;-77
2023/12/03 08:59:57;;;;;;;1.90;0.70;;;5.40;1.00;;;;;;4998777;28;20405;-77
2023/12/03 09:02:25;;;;;;;1.50;0.90;;;5.40;1.00;;;;;;5000800;28;20060;-77
2023/12/03 09:04:52;;;;;;;1.77;0.82;;;5.50;1.00;;;;;;4999502;28;20053;-77
2023/12/03 09:07:19;;;;;;;1.35;0.75;;;5.50;1.00;;;;;;5022767;28;20061;-77
2023/12/03 09:09:46;;;;;;;2.63;1.67;;;5.60;99.90;;;;;;5009675;28;20057;-77
2023/12/03 09:12:14;;;;;;;1.65;0.70;;;5.60;99.90;;;;;;5000441;28;20072;-77
2023/12/03 09:14:41;;;;;;;1.60;1.20;;;5.70;99.90;;;;;;5000590;28;20064;-76
2023/12/03 09:17:09;;;;;;;1.63;0.65;;;5.80;99.90;;;;;;5010652;28;20061;-76
2023/12/03 09:19:36;;;;;;;1.60;1.00;;;5.80;99.90;;;;;;5018757;28;20072;-76
2023/12/03 09:22:03;;;;;;;2.00;0.95;;;5.90;99.90;;;;;;5016687;28;20056;-76
2023/12/03 09:24:30;;;;;;;1.65;0.90;;;5.90;1.00;;;;;;5015352;28;20498;-75
2023/12/03 09:26:57;;;;;;;1.83;1.02;;;6.00;99.90;;;;;;5011290;28;20073;-76
2023/12/03 09:29:24;;;;;;;1.98;1.15;;;6.00;1.00;;;;;;5013803;28;20127;-76
2023/12/03 09:31:51;;;;;;;1.75;1.20;;;6.00;99.90;;;;;;5015947;28;20821;-77
2023/12/03 09:34:22;;;;;;;4.90;1.40;;;6.10;99.90;;;;;;5014248;28;20522;-77
2023/12/03 09:36:49;;;;;;;2.28;1.30;;;6.10;99.90;;;;;;4998834;28;20157;-76
2023/12/03 09:39:17;;;;;;;2.10;1.20;;;6.10;99.90;;;;;;5017025;28;20050;-77
2023/12/03 09:41:48;;;;;;;4.70;2.15;;;6.20;1.00;;;;;;5014382;28;20426;-76
2023/12/03 09:44:27;;;;;;;2.65;1.48;;;6.20;1.00;;;;;;4996983;28;20585;-77
2023/12/03 09:46:54;;;;;;;2.42;1.40;;;6.30;1.00;;;;;;5016403;28;20450;-76
2023/12/03 09:49:24;;;;;;;2.00;1.25;;;6.40;1.00;;;;;;5015034;28;20583;-75
2023/12/03 09:51:51;;;;;;;2.63;1.10;;;6.40;99.90;;;;;;5008154;28;20071;-77
2023/12/03 09:54:19;;;;;;;2.45;1.48;;;6.50;99.90;;;;;;4997716;28;20065;-76
2023/12/03 09:56:47;;;;;;;2.13;0.93;;;6.60;1.00;;;;;;5005331;28;20054;-76
2023/12/03 09:59:14;;;;;;;1.73;1.05;;;6.60;99.90;;;;;;4998963;28;20045;-75
2023/12/03 10:01:41;;;;;;;3.08;1.40;;;6.70;99.90;;;;;;5015708;28;20041;-75
2023/12/03 10:04:10;;;;;;;1.85;1.17;;;6.70;1.00;;;;;;5014927;28;20045;-76
2023/12/03 10:06:41;;;;;;;2.45;1.50;;;6.80;1.00;;;;;;4999004;28;20148;-76
2023/12/03 10:09:11;;;;;;;2.47;1.30;;;6.90;10.70;;;;;;5012809;28;20842;-75
2023/12/03 10:11:41;;;;;;;1.88;1.25;;;7.00;8.80;;;;;;4998594;28;20071;-75
2023/12/03 10:14:08;;;;;;;1.23;0.93;;;7.00;1.00;;;;;;5014086;28;20114;-75
2023/12/03 10:16:35;;;;;;;1.52;1.30;;;7.10;1.00;;;;;;5013280;28;20056;-75
2023/12/03 10:19:02;;;;;;;2.08;1.20;;;7.20;1.00;;;;;;4972343;28;20080;-76
2023/12/03 10:21:29;;;;;;;1.58;1.00;;;7.30;99.90;;;;;;5012063;28;20049;-75
2023/12/03 10:23:57;;;;;;;2.20;1.17;;;7.30;99.90;;;;;;5016121;28;20049;-80
2023/12/03 10:26:24;;;;;;;1.00;0.80;;;7.40;99.90;;;;;;4994499;28;20056;-76
2023/12/03 10:28:52;;;;;;;1.90;1.23;;;7.50;99.90;;;;;;5016218;28;20111;-77
2023/12/03 10:31:19;;;;;;;2.38;0.95;;;7.60;49.20;;;;;;4997862;28;20123;-76
2023/12/03 10:33:46;;;;;;;1.30;1.00;;;7.60;1.00;;;;;;5014532;28;20053;-76
2023/12/03 10:36:14;;;;;;;3.60;1.35;;;7.60;1.00;;;;;;5013743;28;20053;-76
2023/12/03 10:38:43;;;;;;;2.63;0.90;;;7.70;99.90;;;;;;4998844;28;20392;-77
2023/12/03 10:41:13;;;;;;;1.20;0.70;;;7.70;99.90;;;;;;5014807;28;20049;-76
2023/12/03 10:43:41;;;;;;;1.35;0.98;;;7.70;51.60;;;;;;5015597;28;20057;-76
2023/12/03 10:46:12;;;;;;;1.75;1.00;;;7.80;53.90;;;;;;5005272;28;20132;-76
2023/12/03 10:48:38;;;;;;;1.25;0.90;;;7.70;1.00;;;;;;5004896;28;20060;-76
2023/12/03 10:51:10;;;;;;;1.63;1.23;;;7.70;1.00;;;;;;4998949;28;20766;-76
2023/12/03 10:53:37;;;;;;;1.55;0.88;;;7.80;1.00;;;;;;5017458;28;20057;-77
2023/12/03 10:56:06;;;;;;;0.95;0.70;;;7.80;1.00;;;;;;5001670;28;20099;-76
2023/12/03 10:58:39;;;;;;;1.23;0.93;;;7.80;1.00;;;;;;5021329;28;20049;-76
2023/12/03 11:01:20;;;;;;;;;;;7.80;1.00;;;;;;5018450;28;20114;-76
2023/12/03 11:04:06;;;;;;;0.95;0.82;;;7.70;1.00;;;;;;5004752;28;19968;-76
2023/12/03 11:06:34;;;;;;;1.30;1.00;;;7.70;1.00;;;;;;5017753;28;20061;-76
2023/12/03 11:09:01;;;;;;;3.20;1.27;;;7.60;1.00;;;;;;5016626;28;20052;-76
2023/12/03 11:11:28;;;;;;;1.48;0.75;;;7.60;12.10;;;;;;5002930;28;20045;-76
2023/12/03 11:13:56;;;;;;;1.55;0.93;;;7.60;99.60;;;;;;5004507;28;20053;-76
2023/12/03 11:16:27;;;;;;;0.75;0.60;;;7.60;99.90;;;;;;5003441;28;20461;-76
2023/12/03 11:19:10;;;;;;;0.77;0.75;;;7.70;99.90;;;;;;5002194;28;20184;-76
2023/12/03 11:21:39;;;;;;;0.97;0.80;;;7.70;99.90;;;;;;5019254;28;20069;-77
2023/12/03 11:24:20;;;;;;;0.80;0.65;;;7.70;99.90;;;;;;5021704;28;20059;-79
2023/12/03 11:26:47;;;;;;;1.17;0.70;;;7.80;1.00;;;;;;5018176;28;20045;-79
2023/12/03 11:29:14;;;;;;;0.88;0.70;;;7.80;1.00;;;;;;5014386;28;20467;-77
2023/12/03 11:31:41;;;;;;;1.13;0.70;;;7.90;1.00;;;;;;5021481;28;20049;-75
2023/12/03 11:34:09;;;;;;;1.25;0.88;;;7.90;1.00;;;;;;5020427;28;20159;-76
2023/12/03 11:36:47;;;;;;;2.30;0.93;;;7.90;99.90;;;;;;5013340;28;20061;-78
2023/12/03 11:39:19;;;;;;;0.93;0.52;;;7.80;99.90;;;;;;5028649;28;20057;-78
2023/12/03 11:41:46;;;;;;;2.22;1.10;;;7.80;1.00;;;;;;5000378;28;20108;-78
2023/12/03 11:44:20;;;;;;;1.00;0.70;;;7.80;1.00;;;;;;4997222;28;20198;-76
2023/12/03 11:47:00;;;;;;;0.95;0.52;;;7.90;1.00;;;;;;5004678;28;20049;-76
2023/12/03 11:49:28;;;;;;;1.08;0.70;;;7.90;1.00;;;;;;5021066;28;20416;-76
2023/12/03 11:51:56;;;;;;;0.57;0.55;;;8.00;1.00;;;;;;5015535;28;20049;-76
2023/12/03 11:54:38;;;;;;;0.90;0.70;;;8.00;99.90;;;;;;5015743;28;20083;-76
2023/12/03 11:57:14;;;;;;;1.20;0.75;;;8.00;99.90;;;;;;5016621;28;20132;-76
2023/12/03 11:59:44;;;;;;;1.15;0.63;;;8.10;99.90;;;;;;4987379;28;20053;-76
2023/12/03 12:02:12;;;;;;;1.33;0.80;;;8.10;1.00;;;;;;4999244;28;20519;-76
2023/12/03 12:04:39;;;;;;;1.42;0.60;;;8.20;1.00;;;;;;4997654;28;20992;-75
2023/12/03 12:07:16;;;;;;;0.45;0.40;;;8.20;1.00;;;;;;5005688;28;20399;-77
2023/12/03 12:09:47;;;;;;;0.65;0.60;;;8.30;1.00;;;;;;4999635;28;20061;-77
2023/12/03 12:12:15;;;;;;;1.65;1.02;;;8.40;99.90;;;;;;5015802;28;20053;-77
2023/12/03 12:14:44;;;;;;;1.17;0.85;;;8.40;99.90;;;;;;5017271;28;20061;-76
2023/12/03 12:17:10;;;;;;;0.63;0.57;;;8.40;1.00;;;;;;5014662;28;20129;-76
2023/12/03 12:19:50;;;;;;;1.10;0.85;;;8.40;1.00;;;;;;5007895;28;20054;-77
2023/12/03 12:22:17;;;;;;;1.70;1.00;;;8.40;1.00;;;;;;5015959;28;20053;-77
2023/12/03 12:24:44;;;;;;;1.83;0.90;;;8.50;1.00;;;;;;5015155;28;20095;-76
2023/12/03 12:27:13;;;;;;;0.88;0.80;;;8.50;1.00;;;;;;5007720;28;20491;-76
2023/12/03 12:29:41;;;;;;;1.15;0.77;;;8.50;1.00;;;;;;5014059;28;20069;-76
2023/12/03 12:32:07;;;;;;;0.98;0.70;;;8.50;99.90;;;;;;5013732;28;20932;-76
2023/12/03 12:34:34;;;;;;;1.20;0.80;;;8.50;99.90;;;;;;5016320;28;20135;-76
2023/12/03 12:37:06;;;;;;;1.90;0.80;;;8.50;1.00;;;;;;5016569;28;20041;-76
2023/12/03 12:39:33;;;;;;;1.30;0.60;;;8.50;1.00;;;;;;4999908;28;20462;-78
2023/12/03 12:42:00;;;;;;;0.63;0.50;;;8.50;1.00;;;;;;5008603;28;20049;-78
2023/12/03 12:44:42;;;;;;;0.98;0.50;;;8.50;1.00;;;;;;4995370;28;20054;-78
2023/12/03 12:47:16;;;;;;;1.13;0.65;;;8.50;1.00;;;;;;5016443;28;20084;-76
2023/12/03 12:49:57;;;;;;;0.70;0.40;;;8.50;1.00;;;;;;4996654;28;20054;-78
2023/12/03 12:52:25;;;;;;;0.55;0.43;;;8.50;1.00;;;;;;5024025;28;20075;-75
2023/12/03 12:54:57;;;;;;;0.65;0.65;;;8.40;1.00;;;;;;4996203;28;20077;-78
2023/12/03 12:57:32;;;;;;;0.98;0.60;;;8.40;99.90;;;;;;5006962;28;20061;-79
2023/12/03 12:59:59;;;;;;;0.47;0.47;;;8.50;99.90;;;;;;4996598;28;20414;-75
2023/12/03 13:02:26;;;;;;;1.35;0.63;;;8.50;99.90;;;;;;5010947;28;20271;-76
2023/12/03 13:04:53;;;;;;;0.68;0.50;;;8.50;99.90;;;;;;4999098;28;20061;-75